Time;durP1;ratioP1;P1;durP2;ratioP2;P2;SDS_P1;SDS_P2;PMS_P1;PMS_P2;Temp;Humidity;BMP_temperature;BMP_pressure;BME280_temperature;BME280_humidity;BME280_pressure;Samples;Min_cycle;Max_cycle;Signal;HPM_P1;HPM_P2
2021/10/24 00:01:59;;;;;;;1.75;1.58;;;2.60;99.90;;;;;;7380783;19;21084;-80
2021/10/24 00:04:25;;;;;;;1.70;1.60;;;2.70;99.90;;;;;;7383745;19;20320;-80
2021/10/24 00:06:58;;;;;;;2.42;1.85;;;2.60;99.90;;;;;;7358750;19;20352;-80
2021/10/24 00:09:26;;;;;;;1.70;1.60;;;2.50;99.90;;;;;;7358427;19;20354;-80
2021/10/24 00:11:53;;;;;;;3.07;1.63;;;2.60;99.90;;;;;;7360691;19;20343;-80
2021/10/24 00:14:19;;;;;;;2.97;2.17;;;2.50;99.90;;;;;;7343454;19;20353;-80
2021/10/24 00:16:45;;;;;;;1.80;1.70;;;2.60;99.90;;;;;;7379699;19;20380;-80
2021/10/24 00:19:13;;;;;;;1.58;1.48;;;2.40;99.90;;;;;;7360388;19;20884;-80
2021/10/24 00:21:50;;;;;;;1.90;1.75;;;2.30;99.90;;;;;;7361446;19;20364;-80
2021/10/24 00:24:18;;;;;;;2.10;1.90;;;2.30;99.90;;;;;;7382523;19;20763;-80
2021/10/24 00:26:45;;;;;;;1.60;1.50;;;2.20;99.90;;;;;;7382214;19;20475;-81
2021/10/24 00:29:11;;;;;;;2.08;1.55;;;2.20;99.90;;;;;;7364781;19;20329;-80
2021/10/24 00:31:37;;;;;;;1.42;1.33;;;2.10;99.90;;;;;;7359619;19;20341;-80
2021/10/24 00:34:06;;;;;;;1.33;1.23;;;2.20;99.90;;;;;;7383797;19;20329;-80
2021/10/24 00:36:33;;;;;;;1.55;1.40;;;2.20;99.90;;;;;;7382520;19;20360;-80
2021/10/24 00:39:00;;;;;;;1.77;1.60;;;2.30;99.90;;;;;;7384108;19;20883;-80
2021/10/24 00:41:29;;;;;;;1.88;1.77;;;2.30;99.90;;;;;;7379007;19;20727;-80
2021/10/24 00:43:55;;;;;;;1.52;1.42;;;2.30;99.90;;;;;;7382828;19;20312;-80
2021/10/24 00:46:23;;;;;;;2.15;1.77;;;2.30;99.90;;;;;;7383125;19;20363;-80
2021/10/24 00:48:49;;;;;;;1.55;1.45;;;2.40;99.90;;;;;;7389673;19;20377;-80
2021/10/24 00:51:15;;;;;;;1.87;1.77;;;2.30;99.90;;;;;;7388009;19;21113;-80
2021/10/24 00:53:41;;;;;;;1.75;1.65;;;2.20;99.90;;;;;;7388375;19;20349;-79
2021/10/24 00:56:06;;;;;;;1.50;1.40;;;2.20;99.90;;;;;;7383175;19;20348;-79
2021/10/24 00:58:32;;;;;;;2.17;1.80;;;2.20;99.90;;;;;;7386462;19;20360;-79
2021/10/24 01:00:58;;;;;;;2.47;1.53;;;2.20;99.90;;;;;;7386594;19;20748;-79
2021/10/24 01:03:24;;;;;;;1.80;1.60;;;2.20;99.90;;;;;;7387188;19;20333;-79
2021/10/24 01:05:50;;;;;;;3.25;1.75;;;2.20;99.90;;;;;;7384817;19;20352;-80
2021/10/24 01:08:17;;;;;;;1.60;1.50;;;2.10;99.90;;;;;;7385232;19;20348;-80
2021/10/24 01:10:44;;;;;;;1.67;1.58;;;2.10;99.90;;;;;;7384402;19;20316;-80
2021/10/24 01:13:09;;;;;;;1.93;1.60;;;2.00;99.90;;;;;;7383181;19;20346;-79
2021/10/24 01:15:35;;;;;;;1.57;1.47;;;2.00;99.90;;;;;;7382078;19;20970;-79
2021/10/24 01:18:01;;;;;;;1.80;1.70;;;2.00;99.90;;;;;;7385329;19;20357;-79
2021/10/24 01:20:27;;;;;;;1.80;1.70;;;2.10;99.90;;;;;;7381892;19;20432;-79
2021/10/24 01:22:53;;;;;;;1.63;1.52;;;2.00;99.90;;;;;;7346551;19;20895;-80
2021/10/24 01:25:19;;;;;;;2.20;1.70;;;1.90;99.90;;;;;;7364333;19;20324;-80
2021/10/24 01:27:45;;;;;;;1.42;1.35;;;1.90;99.90;;;;;;7379280;19;20325;-79
2021/10/24 01:30:12;;;;;;;1.27;1.27;;;1.90;99.90;;;;;;7382595;19;20312;-80
2021/10/24 01:32:37;;;;;;;1.65;1.55;;;1.90;99.90;;;;;;7382794;19;20375;-80
2021/10/24 01:35:04;;;;;;;1.40;1.30;;;1.80;99.90;;;;;;7383796;19;20345;-79
2021/10/24 01:37:32;;;;;;;1.37;1.27;;;1.90;99.90;;;;;;7382931;19;20332;-79
2021/10/24 01:39:58;;;;;;;1.42;1.35;;;1.70;99.90;;;;;;7380347;19;20363;-79
2021/10/24 01:42:24;;;;;;;1.25;1.25;;;1.80;99.90;;;;;;7382822;19;20340;-80
2021/10/24 01:44:51;;;;;;;1.67;1.58;;;1.80;99.90;;;;;;7381477;19;20362;-80
2021/10/24 01:47:16;;;;;;;1.50;1.33;;;1.60;99.90;;;;;;7380565;19;20712;-80
2021/10/24 01:49:42;;;;;;;2.28;1.40;;;1.60;99.90;;;;;;7382723;19;20324;-80
2021/10/24 01:52:08;;;;;;;1.37;1.27;;;1.50;99.90;;;;;;7379511;19;20308;-80
2021/10/24 01:54:33;;;;;;;2.58;1.48;;;1.60;99.90;;;;;;7380613;19;20889;-80
2021/10/24 01:56:59;;;;;;;1.05;1.05;;;1.60;99.90;;;;;;7380668;19;20363;-80
2021/10/24 01:59:27;;;;;;;1.45;1.35;;;1.60;99.90;;;;;;7381459;19;20335;-78
2021/10/24 02:02:11;;;;;;;1.48;1.38;;;1.50;99.90;;;;;;7280923;19;2005080;-79
2021/10/24 02:05:03;;;;;;;1.80;1.50;;;1.60;99.90;;;;;;7279674;19;2004423;-79
2021/10/24 02:07:30;;;;;;;1.40;1.30;;;1.40;99.90;;;;;;7383249;19;20448;-79
2021/10/24 02:09:56;;;;;;;1.33;1.23;;;1.40;99.90;;;;;;7385930;19;20324;-80
2021/10/24 02:12:22;;;;;;;1.30;1.20;;;1.40;99.90;;;;;;7384708;19;20347;-80
2021/10/24 02:14:50;;;;;;;1.35;1.35;;;1.30;99.90;;;;;;7384033;19;20857;-78
2021/10/24 02:17:16;;;;;;;1.30;1.20;;;1.40;99.90;;;;;;7385482;19;20328;-80
2021/10/24 02:19:44;;;;;;;1.17;1.17;;;1.30;99.90;;;;;;7385180;19;21043;-79
2021/10/24 02:22:10;;;;;;;1.25;1.20;;;1.30;99.90;;;;;;7381306;19;20313;-78
2021/10/24 02:24:37;;;;;;;1.50;1.40;;;1.30;99.90;;;;;;7384107;19;20317;-79
2021/10/24 02:27:03;;;;;;;1.20;1.20;;;1.30;99.90;;;;;;7380968;19;20356;-79
2021/10/24 02:29:29;;;;;;;1.30;1.23;;;1.30;99.90;;;;;;7384554;19;20323;-79
2021/10/24 02:31:55;;;;;;;1.30;1.20;;;1.30;99.90;;;;;;7382256;19;20341;-78
2021/10/24 02:34:45;;;;;;;1.40;1.20;;;1.30;99.90;;;;;;7283253;19;2005788;-79
2021/10/24 02:37:29;;;;;;;1.13;1.08;;;1.20;99.90;;;;;;7381874;19;20332;-79
2021/10/24 02:39:55;;;;;;;1.15;1.13;;;1.20;99.90;;;;;;7384459;19;20304;-79
2021/10/24 02:42:20;;;;;;;1.00;1.00;;;1.20;99.90;;;;;;7383862;19;20345;-79
2021/10/24 02:44:46;;;;;;;1.30;1.20;;;1.10;99.90;;;;;;7381401;19;20672;-79
2021/10/24 02:47:12;;;;;;;1.63;1.53;;;1.10;99.90;;;;;;7382392;19;21001;-78
2021/10/24 02:49:39;;;;;;;1.50;1.40;;;1.10;99.90;;;;;;7361008;19;20328;-79
2021/10/24 02:52:05;;;;;;;1.40;1.30;;;1.10;99.90;;;;;;7379955;19;20321;-79
2021/10/24 02:54:33;;;;;;;1.90;1.70;;;1.00;99.90;;;;;;7382023;19;20320;-79
2021/10/24 02:57:00;;;;;;;1.50;1.40;;;1.00;99.90;;;;;;7381975;19;20329;-79
2021/10/24 02:59:25;;;;;;;1.40;1.30;;;1.00;99.90;;;;;;7381920;19;20313;-79
2021/10/24 03:01:51;;;;;;;2.42;1.48;;;1.00;99.90;;;;;;7381238;19;20323;-79
2021/10/24 03:04:17;;;;;;;1.60;1.45;;;1.00;99.90;;;;;;7382099;19;20304;-78
2021/10/24 03:06:46;;;;;;;1.30;1.30;;;0.90;99.90;;;;;;7380950;19;20354;-79
2021/10/24 03:09:12;;;;;;;1.10;1.10;;;0.90;99.90;;;;;;7382683;19;20790;-79
2021/10/24 03:11:38;;;;;;;1.40;1.30;;;0.90;99.90;;;;;;7381454;19;20315;-79
2021/10/24 03:14:04;;;;;;;1.70;1.60;;;0.80;99.90;;;;;;7367368;19;20410;-79
2021/10/24 03:16:31;;;;;;;1.50;1.40;;;0.80;99.90;;;;;;7370357;19;20356;-79
2021/10/24 03:18:57;;;;;;;1.73;1.43;;;0.80;99.90;;;;;;7374370;19;20320;-79
2021/10/24 03:21:23;;;;;;;1.33;1.27;;;0.70;99.90;;;;;;7373398;19;20345;-79
2021/10/24 03:23:52;;;;;;;1.75;1.65;;;0.80;99.90;;;;;;7376539;19;20914;-79
2021/10/24 03:26:18;;;;;;;1.50;1.40;;;0.70;99.90;;;;;;7374480;19;20340;-79
2021/10/24 03:28:44;;;;;;;1.20;1.20;;;0.80;99.90;;;;;;7378562;19;20680;-79
2021/10/24 03:31:10;;;;;;;1.47;1.43;;;0.80;99.90;;;;;;7375421;19;20323;-79
2021/10/24 03:33:36;;;;;;;1.30;1.30;;;0.80;99.90;;;;;;7378197;19;20340;-79
2021/10/24 03:36:01;;;;;;;1.63;1.52;;;0.80;99.90;;;;;;7375522;19;20313;-80
2021/10/24 03:38:27;;;;;;;1.40;1.33;;;0.80;99.90;;;;;;7379530;19;20353;-79
2021/10/24 03:40:56;;;;;;;1.40;1.30;;;0.70;99.90;;;;;;7375015;19;20304;-79
2021/10/24 03:43:22;;;;;;;1.45;1.35;;;0.80;99.90;;;;;;7378742;19;20870;-78
2021/10/24 03:45:48;;;;;;;1.57;1.47;;;0.70;99.90;;;;;;7373837;19;20359;-78
2021/10/24 03:48:14;;;;;;;1.33;1.25;;;0.70;99.90;;;;;;7377849;19;20309;-79
2021/10/24 03:50:45;;;;;;;1.35;1.25;;;0.70;99.90;;;;;;7272459;19;2010194;-78
2021/10/24 03:53:10;;;;;;;1.88;1.48;;;0.70;99.90;;;;;;7377779;19;20336;-79
2021/10/24 03:55:36;;;;;;;1.23;1.20;;;0.70;99.90;;;;;;7372362;19;20305;-79
2021/10/24 03:58:03;;;;;;;1.17;1.17;;;0.60;99.90;;;;;;7376165;19;20313;-78
2021/10/24 04:00:28;;;;;;;1.30;1.27;;;0.60;99.90;;;;;;7372752;19;20969;-78
2021/10/24 04:03:01;;;;;;;1.23;1.17;;;0.60;99.90;;;;;;7376036;19;20327;-79
2021/10/24 04:05:33;;;;;;;1.00;1.00;;;0.60;99.90;;;;;;7372703;19;20420;-78
2021/10/24 04:07:59;;;;;;;1.15;1.15;;;0.60;99.90;;;;;;7376454;19;20329;-78
2021/10/24 04:10:25;;;;;;;1.40;1.30;;;0.60;99.90;;;;;;7372506;19;20344;-78
2021/10/24 04:12:51;;;;;;;1.20;1.10;;;0.50;99.90;;;;;;7375945;19;20321;-79
2021/10/24 04:15:17;;;;;;;1.10;1.10;;;0.50;99.90;;;;;;7375179;19;20373;-78
2021/10/24 04:17:43;;;;;;;1.17;1.17;;;0.50;99.90;;;;;;7380078;19;20965;-79
2021/10/24 04:20:11;;;;;;;0.90;0.90;;;0.50;99.90;;;;;;7381600;19;20323;-79
2021/10/24 04:22:37;;;;;;;1.15;1.15;;;0.50;99.90;;;;;;7380877;19;20456;-79
2021/10/24 04:25:03;;;;;;;1.10;1.10;;;0.50;99.90;;;;;;7380912;19;20373;-78
2021/10/24 04:27:29;;;;;;;1.60;1.50;;;0.40;99.90;;;;;;7382336;19;20348;-78
2021/10/24 04:29:55;;;;;;;1.30;1.20;;;0.40;99.90;;;;;;7380686;19;20320;-77
2021/10/24 04:32:21;;;;;;;1.17;1.17;;;0.50;99.90;;;;;;7380180;19;21223;-78
2021/10/24 04:34:46;;;;;;;1.23;1.20;;;0.40;99.90;;;;;;7381972;19;20348;-78
2021/10/24 04:37:12;;;;;;;1.02;1.02;;;0.30;99.90;;;;;;7378962;19;20356;-77
2021/10/24 04:39:38;;;;;;;5.18;1.45;;;0.30;99.90;;;;;;7383803;19;20339;-78
2021/10/24 04:42:04;;;;;;;1.10;1.10;;;0.20;99.90;;;;;;7378131;19;20312;-78
2021/10/24 04:44:30;;;;;;;1.00;1.00;;;0.20;99.90;;;;;;7381375;19;20332;-78
2021/10/24 04:46:56;;;;;;;1.40;1.30;;;0.20;99.90;;;;;;7378543;19;20337;-78
2021/10/24 04:49:24;;;;;;;1.08;1.08;;;0.20;99.90;;;;;;7382931;19;20870;-78
2021/10/24 04:51:49;;;;;;;1.15;1.15;;;0.20;99.90;;;;;;7379023;19;20374;-78
2021/10/24 04:54:15;;;;;;;1.10;1.10;;;0.20;99.90;;;;;;7382331;19;21169;-77
2021/10/24 04:56:41;;;;;;;1.27;1.17;;;0.20;99.90;;;;;;7378887;19;20428;-78
2021/10/24 04:59:07;;;;;;;1.10;1.10;;;0.20;99.90;;;;;;7384712;19;20388;-77
2021/10/24 05:01:35;;;;;;;1.60;1.50;;;0.20;99.90;;;;;;7381442;19;20307;-78
2021/10/24 05:04:01;;;;;;;1.30;1.25;;;0.20;99.90;;;;;;7384949;19;20372;-78
2021/10/24 05:06:27;;;;;;;1.10;1.10;;;0.20;99.90;;;;;;7379900;19;20308;-78
2021/10/24 05:08:52;;;;;;;1.42;1.33;;;0.30;99.90;;;;;;7384682;19;20341;-78
2021/10/24 05:11:18;;;;;;;1.55;1.20;;;0.20;99.90;;;;;;7380511;19;20320;-78
2021/10/24 05:13:46;;;;;;;1.50;1.35;;;0.20;99.90;;;;;;7382660;19;20319;-78
2021/10/24 05:16:12;;;;;;;1.10;1.10;;;0.10;99.90;;;;;;7380447;19;20867;-79
2021/10/24 05:18:37;;;;;;;1.35;1.30;;;0.10;99.90;;;;;;7383341;19;20934;-78
2021/10/24 05:21:03;;;;;;;1.50;1.40;;;0.10;99.90;;;;;;7379149;19;20312;-78
2021/10/24 05:23:31;;;;;;;1.48;1.38;;;0.10;99.90;;;;;;7381357;19;20367;-78
2021/10/24 05:25:58;;;;;;;1.20;1.20;;;0.10;99.90;;;;;;7376927;19;20332;-78
2021/10/24 05:28:24;;;;;;;1.55;1.30;;;0.20;99.90;;;;;;7378297;19;20324;-75
2021/10/24 05:30:51;;;;;;;1.40;1.30;;;0.10;99.90;;;;;;7379235;19;20341;-78
2021/10/24 05:33:17;;;;;;;1.27;1.20;;;0.10;99.90;;;;;;7381760;19;20329;-77
2021/10/24 05:36:02;;;;;;;1.60;1.50;;;0.10;99.90;;;;;;7378935;19;20395;-78
2021/10/24 05:38:27;;;;;;;1.10;1.10;;;0.10;99.90;;;;;;7382352;19;20333;-76
2021/10/24 05:41:01;;;;;;;1.33;1.23;;;0.10;99.90;;;;;;7276795;19;2008902;-79
2021/10/24 05:43:27;;;;;;;1.60;1.50;;;0.00;99.90;;;;;;7379957;19;20976;-78
2021/10/24 05:45:52;;;;;;;1.67;1.58;;;0.00;99.90;;;;;;7378440;19;20903;-79
2021/10/24 05:48:21;;;;;;;2.70;1.67;;;0.00;99.90;;;;;;7377826;19;20309;-78
2021/10/24 05:50:54;;;;;;;2.10;1.42;;;0.00;99.90;;;;;;7377983;19;20420;-79
2021/10/24 05:53:21;;;;;;;1.48;1.40;;;0.00;99.90;;;;;;7381897;19;20408;-78
2021/10/24 05:55:48;;;;;;;1.33;1.33;;;0.00;99.90;;;;;;7377453;19;20320;-78
2021/10/24 05:58:14;;;;;;;1.33;1.23;;;-0.10;99.90;;;;;;7381686;19;20281;-79
2021/10/24 06:00:59;;;;;;;1.77;1.63;;;-0.10;99.90;;;;;;7277563;19;2004314;-78
2021/10/24 06:04:02;;;;;;;2.93;1.47;;;0.10;99.90;;;;;;7280287;19;2004227;-78
2021/10/24 06:06:47;;;;;;;1.57;1.47;;;0.00;99.90;;;;;;7278265;19;2004223;-78
2021/10/24 06:09:12;;;;;;;1.67;1.57;;;0.00;99.90;;;;;;7384657;19;20194;-78
2021/10/24 06:11:47;;;;;;;1.40;1.13;;;0.00;99.90;;;;;;7381698;19;20714;-77
2021/10/24 06:14:14;;;;;;;1.80;1.70;;;0.00;99.90;;;;;;7380898;19;20605;-79
2021/10/24 06:16:40;;;;;;;1.07;1.07;;;0.00;99.90;;;;;;7378110;19;20198;-78
2021/10/24 06:19:06;;;;;;;1.83;1.73;;;-0.10;99.90;;;;;;7383297;19;20756;-78
2021/10/24 06:21:32;;;;;;;1.30;1.20;;;-0.10;99.90;;;;;;7379576;19;20201;-78
2021/10/24 06:23:58;;;;;;;4.00;1.53;;;-0.20;99.90;;;;;;7380133;19;20198;-78
2021/10/24 06:26:24;;;;;;;1.87;1.57;;;-0.20;99.90;;;;;;7379685;19;20198;-79
2021/10/24 06:28:50;;;;;;;1.50;1.40;;;-0.20;99.90;;;;;;7382678;19;20206;-77
2021/10/24 06:31:16;;;;;;;1.40;1.40;;;-0.20;99.90;;;;;;7379766;19;20208;-78
2021/10/24 06:34:14;;;;;;;1.47;1.40;;;-0.20;99.90;;;;;;7277822;19;2004164;-78
2021/10/24 06:36:57;;;;;;;1.40;1.40;;;-0.20;99.90;;;;;;7381677;19;20194;-78
2021/10/24 06:39:29;;;;;;;1.40;1.30;;;-0.20;99.90;;;;;;7387041;19;20190;-78
2021/10/24 06:41:55;;;;;;;1.40;1.30;;;-0.20;99.90;;;;;;7384457;19;20217;-79
2021/10/24 06:44:49;;;;;;;2.10;1.80;;;-0.20;99.90;;;;;;7277683;19;2004408;-78
2021/10/24 06:47:34;;;;;;;1.93;1.83;;;-0.10;99.90;;;;;;7377581;19;20193;-78
2021/10/24 06:50:18;;;;;;;2.43;1.83;;;0.00;99.90;;;;;;7379242;19;20776;-77
2021/10/24 06:52:56;;;;;;;1.77;1.67;;;0.00;99.90;;;;;;7376576;19;20331;-78
2021/10/24 06:55:40;;;;;;;1.80;1.37;;;0.00;99.90;;;;;;7273311;19;2004256;-77
2021/10/24 06:58:09;;;;;;;1.60;1.50;;;0.10;99.90;;;;;;7380102;19;20202;-77
2021/10/24 07:00:57;;;;;;;1.52;1.50;;;0.20;99.90;;;;;;7271887;19;2004586;-78
2021/10/24 07:04:01;;;;;;;1.37;1.37;;;0.20;99.90;;;;;;7277414;19;2004287;-77
2021/10/24 07:06:46;;;;;;;1.50;1.40;;;0.30;99.90;;;;;;7272300;19;2006163;-76
2021/10/24 07:09:24;;;;;;;1.30;1.30;;;0.40;99.90;;;;;;7356798;19;20193;-78
2021/10/24 07:11:49;;;;;;;1.60;1.50;;;0.60;99.90;;;;;;7376286;19;20198;-77
2021/10/24 07:14:16;;;;;;;1.70;1.60;;;0.70;99.90;;;;;;7376184;19;20314;-77
2021/10/24 07:16:42;;;;;;;4.47;4.17;;;0.60;99.90;;;;;;7375335;19;20895;-77
2021/10/24 07:19:08;;;;;;;3.75;3.10;;;0.70;99.90;;;;;;7355283;19;20312;-77
2021/10/24 07:21:34;;;;;;;2.53;2.33;;;0.80;99.90;;;;;;7376566;19;20197;-78
2021/10/24 07:24:02;;;;;;;1.47;1.43;;;0.90;99.90;;;;;;7381021;19;20202;-78
2021/10/24 07:26:33;;;;;;;5.18;3.30;;;1.00;99.90;;;;;;7370932;19;20645;-78
2021/10/24 07:28:59;;;;;;;16.20;3.87;;;1.20;99.90;;;;;;7378075;19;20194;-77
2021/10/24 07:31:26;;;;;;;3.60;3.30;;;1.40;99.90;;;;;;7372782;19;20439;-78
2021/10/24 07:34:15;;;;;;;3.03;2.72;;;1.60;99.90;;;;;;7378236;19;20207;-78
2021/10/24 07:36:44;;;;;;;1.73;1.63;;;2.00;99.90;;;;;;7375393;19;20202;-78
2021/10/24 07:39:10;;;;;;;4.03;3.30;;;2.10;99.90;;;;;;7377743;19;20728;-78
2021/10/24 07:41:36;;;;;;;2.70;2.37;;;2.30;99.90;;;;;;7376794;19;20217;-79
2021/10/24 07:44:01;;;;;;;3.33;2.60;;;2.40;99.90;;;;;;7376214;19;20312;-78
2021/10/24 07:46:27;;;;;;;3.47;2.92;;;2.50;99.90;;;;;;7373208;19;20948;-79
2021/10/24 07:48:53;;;;;;;4.65;4.05;;;2.60;99.90;;;;;;7380657;19;20190;-79
2021/10/24 07:51:20;;;;;;;3.17;2.85;;;2.70;99.90;;;;;;7379045;19;20766;-78
2021/10/24 07:53:46;;;;;;;6.53;4.95;;;2.90;99.90;;;;;;7384247;19;20336;-79
2021/10/24 07:56:12;;;;;;;4.20;3.80;;;3.00;99.90;;;;;;7384058;19;20716;-78
2021/10/24 07:59:02;;;;;;;6.27;4.77;;;3.00;99.90;;;;;;7396535;19;20312;-80
2021/10/24 08:01:31;;;;;;;14.85;12.27;;;3.20;99.90;;;;;;7389768;19;20347;-78
2021/10/24 08:03:57;;;;;;;12.40;9.95;;;3.30;99.90;;;;;;7387690;19;20186;-78
2021/10/24 08:06:32;;;;;;;4.57;4.15;;;3.50;99.90;;;;;;7280231;19;2004475;-78
2021/10/24 08:08:58;;;;;;;2.80;2.60;;;3.60;99.90;;;;;;7386240;19;20339;-78
2021/10/24 08:11:24;;;;;;;4.45;3.00;;;3.70;99.90;;;;;;7389248;19;20320;-78
2021/10/24 08:13:50;;;;;;;2.58;2.38;;;3.80;99.90;;;;;;7388875;19;20300;-78
2021/10/24 08:16:16;;;;;;;4.53;2.67;;;4.00;99.90;;;;;;7386778;19;20336;-78
2021/10/24 08:18:42;;;;;;;3.45;2.70;;;4.10;99.90;;;;;;7387713;19;20363;-78
2021/10/24 08:21:07;;;;;;;3.53;2.47;;;4.20;99.90;;;;;;7388896;19;20320;-78
2021/10/24 08:23:35;;;;;;;3.30;2.67;;;4.40;99.90;;;;;;7390722;19;20344;-78
2021/10/24 08:26:01;;;;;;;2.50;2.30;;;4.50;99.90;;;;;;7388870;19;20365;-78
2021/10/24 08:28:27;;;;;;;4.47;3.07;;;4.70;99.90;;;;;;7390839;19;20884;-78
2021/10/24 08:31:02;;;;;;;2.85;2.33;;;4.80;99.90;;;;;;7389505;19;20905;-78
2021/10/24 08:33:39;;;;;;;2.97;2.75;;;4.90;99.90;;;;;;7394199;19;20196;-78
2021/10/24 08:36:06;;;;;;;3.70;3.10;;;5.00;99.90;;;;;;7390910;19;20333;-79
2021/10/24 08:38:31;;;;;;;2.58;2.38;;;5.10;99.90;;;;;;7398337;19;20385;-78
2021/10/24 08:40:58;;;;;;;2.88;2.60;;;5.20;99.90;;;;;;7390800;19;20320;-79
2021/10/24 08:43:28;;;;;;;2.47;2.27;;;5.30;99.90;;;;;;7389535;19;20344;-79
2021/10/24 08:45:57;;;;;;;3.70;2.35;;;5.40;99.90;;;;;;7390949;19;21006;-79
2021/10/24 08:48:23;;;;;;;2.60;2.40;;;5.50;99.90;;;;;;7390451;19;20352;-78
2021/10/24 08:50:50;;;;;;;4.40;2.88;;;5.60;99.90;;;;;;7386788;19;20320;-79
2021/10/24 08:53:26;;;;;;;2.83;2.63;;;5.60;99.90;;;;;;7389591;19;20400;-80
2021/10/24 08:55:53;;;;;;;4.40;3.05;;;5.80;99.90;;;;;;7287425;19;2004360;-80
2021/10/24 08:58:21;;;;;;;2.87;2.47;;;5.90;99.90;;;;;;7386665;19;20308;-78
2021/10/24 09:00:50;;;;;;;4.00;2.78;;;6.00;99.90;;;;;;7384417;19;20344;-79
2021/10/24 09:03:16;;;;;;;2.60;2.30;;;6.00;99.90;;;;;;7383452;19;20309;-76
2021/10/24 09:09:31;;;;;;;2.55;2.35;;;6.20;99.90;;;;;;7361702;19;20324;-78
2021/10/24 09:12:04;;;;;;;3.05;2.60;;;6.40;99.90;;;;;;7387886;19;20320;-78
2021/10/24 09:14:42;;;;;;;2.60;2.40;;;6.50;99.90;;;;;;7388031;19;20352;-78
2021/10/24 09:17:09;;;;;;;1.90;1.80;;;6.70;99.90;;;;;;7385549;19;20356;-78
2021/10/24 09:19:37;;;;;;;5.70;2.40;;;6.80;99.90;;;;;;7386324;19;20340;-77
2021/10/24 09:22:32;;;;;;;2.50;2.30;;;6.90;99.90;;;;;;7385694;19;20416;-78
2021/10/24 09:25:08;;;;;;;3.20;2.35;;;7.00;99.90;;;;;;7284439;19;2004578;-78
2021/10/24 09:27:51;;;;;;;4.25;2.85;;;7.20;99.90;;;;;;7385811;19;20316;-77
2021/10/24 09:30:25;;;;;;;2.88;2.47;;;7.20;99.90;;;;;;7384445;19;20324;-78
2021/10/24 09:32:54;;;;;;;5.25;2.53;;;7.50;99.90;;;;;;7385472;19;20318;-78
2021/10/24 09:35:27;;;;;;;2.30;2.10;;;7.60;99.90;;;;;;7385486;19;20309;-78
2021/10/24 09:38:28;;;;;;;3.03;2.72;;;7.70;99.90;;;;;;7262502;19;2004409;-77
2021/10/24 09:41:07;;;;;;;2.47;2.10;;;7.90;99.90;;;;;;7381821;19;20745;-79
2021/10/24 09:43:34;;;;;;;3.72;2.28;;;8.00;99.90;;;;;;7387667;19;20339;-78
2021/10/24 09:46:02;;;;;;;3.63;2.63;;;8.20;99.90;;;;;;7384505;19;20316;-78
2021/10/24 09:48:32;;;;;;;2.17;1.98;;;8.30;99.90;;;;;;7386021;19;20324;-78
2021/10/24 09:51:08;;;;;;;2.00;1.80;;;8.50;99.90;;;;;;7388053;19;20353;-78
2021/10/24 09:53:38;;;;;;;1.60;1.50;;;8.60;99.90;;;;;;7285913;19;2004433;-78
2021/10/24 09:56:08;;;;;;;6.00;2.10;;;8.70;99.90;;;;;;7367865;19;20333;-78
2021/10/24 09:58:40;;;;;;;2.30;2.00;;;8.90;99.90;;;;;;7386272;19;20321;-77
2021/10/24 10:01:12;;;;;;;4.03;2.15;;;9.00;99.90;;;;;;7384394;19;20328;-79
2021/10/24 10:03:38;;;;;;;2.10;1.90;;;9.00;99.90;;;;;;7386090;19;20321;-78
2021/10/24 10:06:07;;;;;;;5.22;2.03;;;9.20;99.90;;;;;;7382456;19;20327;-79
2021/10/24 10:08:33;;;;;;;3.13;1.88;;;9.20;99.90;;;;;;7386059;19;20336;-77
2021/10/24 10:11:12;;;;;;;1.52;1.42;;;9.30;99.90;;;;;;7384120;19;20325;-77
2021/10/24 10:13:40;;;;;;;1.77;1.67;;;9.40;99.90;;;;;;7281281;19;2004359;-77
2021/10/24 10:16:09;;;;;;;1.70;1.60;;;9.50;99.90;;;;;;7386155;19;20312;-78
2021/10/24 10:18:56;;;;;;;3.10;1.70;;;9.60;99.90;;;;;;7385064;19;20317;-78
2021/10/24 10:21:28;;;;;;;2.35;1.92;;;9.60;99.90;;;;;;7385379;19;20317;-78
2021/10/24 10:23:54;;;;;;;2.55;1.55;;;9.70;99.90;;;;;;7384699;19;20676;-78
2021/10/24 10:26:36;;;;;;;1.60;1.50;;;9.90;99.90;;;;;;7384413;19;20332;-79
2021/10/24 10:29:03;;;;;;;1.60;1.50;;;10.10;99.90;;;;;;7384803;19;20416;-79
2021/10/24 10:31:29;;;;;;;1.85;1.60;;;10.10;99.90;;;;;;7366233;19;20447;-78
2021/10/24 10:33:57;;;;;;;3.10;1.60;;;10.20;99.90;;;;;;7386210;19;20345;-77
2021/10/24 10:36:44;;;;;;;2.25;1.40;;;10.30;99.90;;;;;;7360597;19;20399;-78
2021/10/24 10:39:37;;;;;;;1.95;1.38;;;10.40;99.90;;;;;;7384217;19;20399;-78
2021/10/24 10:42:23;;;;;;;1.33;1.23;;;10.70;99.90;;;;;;7281508;19;2004506;-77
2021/10/24 10:45:14;;;;;;;1.63;1.52;;;10.70;99.90;;;;;;7384480;19;20321;-78
2021/10/24 10:48:04;;;;;;;2.20;1.20;;;11.00;99.90;;;;;;7282390;19;2024490;-78
2021/10/24 10:50:31;;;;;;;1.05;1.05;;;11.10;99.90;;;;;;7279736;19;2004293;-78
2021/10/24 10:53:00;;;;;;;2.20;1.10;;;11.30;99.90;;;;;;7365017;19;20313;-78
2021/10/24 10:55:29;;;;;;;1.00;1.00;;;11.40;99.90;;;;;;7340980;19;20332;-79
2021/10/24 10:57:57;;;;;;;1.20;1.10;;;11.50;99.90;;;;;;7382390;19;20403;-79
2021/10/24 11:00:36;;;;;;;2.38;1.30;;;11.50;99.90;;;;;;7381874;19;20879;-78
2021/10/24 11:03:02;;;;;;;1.30;1.20;;;11.90;99.90;;;;;;7382712;19;20669;-78
2021/10/24 11:05:38;;;;;;;1.30;1.15;;;11.90;99.90;;;;;;7384788;19;20383;-78
2021/10/24 11:08:43;;;;;;;1.10;1.05;;;12.30;99.90;;;;;;7384268;19;20404;-78
2021/10/24 11:11:09;;;;;;;1.40;1.30;;;12.50;99.90;;;;;;7282675;19;2003952;-78
2021/10/24 11:13:38;;;;;;;1.20;1.10;;;12.80;99.90;;;;;;7386694;19;20346;-77
2021/10/24 11:16:29;;;;;;;1.13;1.10;;;13.10;99.90;;;;;;7387873;19;20333;-78
2021/10/24 11:18:55;;;;;;;1.40;1.30;;;13.00;99.90;;;;;;7283758;19;2004815;-78
2021/10/24 11:21:30;;;;;;;1.80;1.00;;;13.00;99.90;;;;;;7384312;19;20850;-78
2021/10/24 11:23:59;;;;;;;1.40;1.30;;;13.00;99.90;;;;;;7282110;19;2004434;-79
2021/10/24 11:26:25;;;;;;;4.78;1.20;;;13.10;99.90;;;;;;7385999;19;20328;-79
2021/10/24 11:28:51;;;;;;;1.40;1.27;;;13.20;99.90;;;;;;7391782;19;20312;-79
2021/10/24 11:31:20;;;;;;;1.15;1.00;;;13.20;99.90;;;;;;7393580;19;20328;-79
2021/10/24 11:33:46;;;;;;;1.88;1.27;;;13.30;99.90;;;;;;7389902;19;20708;-78
2021/10/24 11:36:17;;;;;;;1.20;1.05;;;13.20;99.90;;;;;;7386582;19;20376;-79
2021/10/24 11:38:44;;;;;;;2.60;0.98;;;13.20;99.90;;;;;;7388063;19;20351;-78
2021/10/24 11:41:19;;;;;;;1.00;1.00;;;13.20;99.90;;;;;;7390450;19;20313;-78
2021/10/24 11:43:45;;;;;;;1.17;1.08;;;13.50;99.90;;;;;;7391937;19;20336;-78
2021/10/24 11:46:11;;;;;;;1.38;1.20;;;13.50;99.90;;;;;;7390262;19;20370;-78
2021/10/24 11:48:37;;;;;;;1.20;1.10;;;13.50;99.90;;;;;;7391290;19;20315;-78
2021/10/24 11:51:04;;;;;;;0.93;0.93;;;13.70;99.90;;;;;;7389289;19;20301;-79
2021/10/24 11:53:43;;;;;;;1.77;0.90;;;13.80;99.90;;;;;;7391348;19;20705;-79
2021/10/24 11:56:16;;;;;;;2.03;1.23;;;14.10;99.90;;;;;;7389120;19;20850;-79
2021/10/24 12:01:29;;;;;;;1.30;1.20;;;14.40;99.90;;;;;;7368745;19;20536;-79
2021/10/24 12:03:59;;;;;;;1.45;1.00;;;14.30;99.90;;;;;;7391227;19;20382;-79
2021/10/24 12:06:51;;;;;;;1.30;1.20;;;14.40;99.90;;;;;;7391022;19;20317;-79
2021/10/24 12:09:32;;;;;;;1.57;1.27;;;14.00;99.90;;;;;;7288064;19;2004438;-79
2021/10/24 12:12:18;;;;;;;1.75;1.15;;;13.60;99.90;;;;;;7388931;19;20323;-79
2021/10/24 12:14:47;;;;;;;1.25;1.15;;;13.30;99.90;;;;;;7390371;19;20328;-79
2021/10/24 12:17:27;;;;;;;1.42;1.02;;;13.30;99.90;;;;;;7391072;19;20372;-79
2021/10/24 12:20:18;;;;;;;1.40;1.02;;;13.40;99.90;;;;;;7390364;19;20324;-79
2021/10/24 12:22:46;;;;;;;1.30;1.20;;;13.20;99.90;;;;;;7289591;19;2004456;-79
2021/10/24 12:25:22;;;;;;;0.95;0.95;;;13.10;99.90;;;;;;7388948;19;20357;-78
2021/10/24 12:28:23;;;;;;;0.70;0.70;;;13.10;99.90;;;;;;7389071;19;20328;-80
2021/10/24 12:38:10;;;;;;;1.02;1.02;;;12.80;99.90;;;;;;7382042;19;20377;-76
2021/10/24 12:41:21;;;;;;;1.00;1.00;;;12.80;99.90;;;;;;7122534;19;2008916;-81
2021/10/24 12:44:37;;;;;;;2.42;1.08;;;12.80;99.90;;;;;;7348887;19;20352;-81
2021/10/24 12:51:33;;;;;;;1.15;1.05;;;12.60;99.90;;;;;;7396257;19;20794;-80
2021/10/24 12:55:21;;;;;;;1.10;1.10;;;12.60;99.90;;;;;;7398383;19;20328;-81
2021/10/24 12:59:23;;;;;;;1.40;1.30;;;12.60;99.90;;;;;;7336942;19;20544;-81
2021/10/24 13:09:25;;;;;;;2.00;1.13;;;12.20;99.90;;;;;;7394299;19;20365;-81
2021/10/24 13:13:08;;;;;;;1.63;1.43;;;12.10;99.90;;;;;;7327520;19;20941;-79
2021/10/24 13:16:26;;;;;;;2.70;1.80;;;12.10;99.90;;;;;;7371133;19;20348;-81
2021/10/24 13:19:46;;;;;;;2.05;1.85;;;11.80;99.90;;;;;;7142665;19;2004471;-81
2021/10/24 13:23:13;;;;;;;1.80;1.50;;;12.10;99.90;;;;;;7373110;19;20317;-81
2021/10/24 13:31:03;;;;;;;1.02;1.00;;;12.00;99.90;;;;;;7169730;19;2004419;-80
2021/10/24 13:34:44;;;;;;;1.70;1.60;;;12.00;99.90;;;;;;7141882;19;2004217;-80
2021/10/24 13:38:00;;;;;;;2.72;2.53;;;11.90;99.90;;;;;;7248121;19;2004203;-81
2021/10/24 13:40:55;;;;;;;1.77;1.52;;;12.00;99.90;;;;;;7371198;19;20377;-81
2021/10/24 13:43:54;;;;;;;4.05;1.40;;;11.90;99.90;;;;;;7324256;19;20337;-80
2021/10/24 13:57:26;;;;;;;1.40;1.30;;;11.80;99.90;;;;;;7399506;19;20807;-81
2021/10/24 14:00:14;;;;;;;1.40;1.30;;;11.70;99.90;;;;;;7382926;19;20890;-80
2021/10/24 14:04:02;;;;;;;2.03;1.60;;;11.80;99.90;;;;;;7355979;19;20355;-82